createdAt,value
2017-12-03T00:00:56.089Z,86.35
2017-12-03T00:03:27.186Z,86.48
2017-12-03T00:05:55.023Z,86.54
2017-12-03T00:08:24.606Z,86.27
2017-12-03T00:10:55.693Z,84.64
2017-12-03T00:13:23.602Z,82.47
2017-12-03T00:15:55.209Z,81.14
2017-12-03T00:18:24.272Z,78.03
2017-12-03T00:20:54.942Z,76.10
2017-12-03T00:23:23.195Z,75.37
2017-12-03T00:25:53.335Z,74.69
2017-12-03T00:28:21.379Z,75.56
2017-12-03T00:30:49.168Z,75.58
2017-12-03T00:33:17.130Z,75.54
2017-12-03T00:35:45.539Z,75.58
2017-12-03T00:38:14.437Z,74.55
2017-12-03T00:40:43.692Z,74.61
2017-12-03T00:43:12.921Z,74.82
2017-12-03T00:45:42.514Z,73.83
2017-12-03T00:48:12.350Z,73.56
2017-12-03T00:50:40.815Z,72.90
2017-12-03T00:53:10.317Z,73.37
2017-12-03T00:55:38.331Z,73.87
2017-12-03T00:58:08.965Z,73.95
2017-12-03T01:00:38.326Z,73.67
2017-12-03T01:03:08.153Z,73.48
2017-12-03T01:05:36.000Z,72.96
2017-12-03T01:08:04.280Z,73.02
2017-12-03T01:10:32.060Z,72.67
2017-12-03T01:12:59.934Z,72.39
2017-12-03T01:15:31.284Z,72.52
2017-12-03T01:17:59.259Z,72.41
2017-12-03T01:20:27.127Z,73.06
2017-12-03T01:22:56.704Z,73.52
2017-12-03T01:25:28.545Z,73.34
2017-12-03T01:27:58.558Z,72.43
2017-12-03T01:30:26.713Z,72.71
2017-12-03T01:32:57.259Z,73.18
2017-12-03T01:35:26.960Z,73.49
2017-12-03T01:37:58.134Z,73.78
2017-12-03T01:40:28.477Z,72.91
2017-12-03T01:42:56.540Z,71.63
2017-12-03T01:45:25.174Z,72.57
2017-12-03T01:47:55.014Z,72.51
2017-12-03T01:50:22.980Z,72.55
2017-12-03T01:52:51.546Z,71.87
2017-12-03T01:55:22.994Z,72.02
2017-12-03T01:57:53.393Z,71.97
2017-12-03T02:00:23.400Z,71.69
2017-12-03T02:02:51.678Z,71.84
2017-12-03T02:05:21.980Z,72.19
2017-12-03T02:07:51.986Z,72.22
2017-12-03T02:10:19.826Z,71.99
2017-12-03T02:12:47.605Z,71.95
2017-12-03T02:15:15.362Z,72.27
2017-12-03T02:17:43.910Z,72.40
2017-12-03T02:20:12.492Z,72.95
2017-12-03T02:22:40.258Z,74.08
2017-12-03T02:25:09.804Z,74.88
2017-12-03T02:27:38.598Z,75.69
2017-12-03T02:30:08.288Z,77.16
2017-12-03T02:32:38.659Z,77.67
2017-12-03T02:35:08.298Z,78.42
2017-12-03T02:37:37.967Z,78.96
2017-12-03T02:40:05.728Z,79.50
2017-12-03T02:42:35.646Z,80.14
2017-12-03T02:45:03.315Z,80.58
2017-12-03T02:47:32.849Z,81.31
2017-12-03T02:50:04.125Z,82.05
2017-12-03T02:52:33.473Z,82.75
2017-12-03T02:55:01.963Z,82.76
2017-12-03T02:57:29.657Z,83.02
2017-12-03T02:59:57.370Z,83.22
2017-12-03T03:02:25.056Z,83.52
2017-12-03T03:04:52.797Z,83.83
2017-12-03T03:07:21.748Z,83.74
2017-12-03T03:09:51.970Z,84.29
2017-12-03T03:12:19.658Z,84.45
2017-12-03T03:14:48.934Z,84.51
2017-12-03T03:17:16.764Z,84.69
2017-12-03T03:19:45.269Z,84.71
2017-12-03T03:22:14.686Z,84.73
2017-12-03T03:24:44.312Z,84.96
2017-12-03T03:27:13.194Z,85.03
2017-12-03T03:29:42.924Z,85.16
2017-12-03T03:32:12.641Z,85.19
2017-12-03T03:34:42.774Z,85.39
2017-12-03T03:37:11.159Z,85.10
2017-12-03T03:39:38.813Z,84.98
2017-12-03T03:42:08.231Z,84.79
2017-12-03T03:44:38.496Z,84.33
2017-12-03T03:47:06.246Z,84.21
2017-12-03T03:49:34.002Z,84.35
2017-12-03T03:52:03.512Z,84.58
2017-12-03T03:54:31.196Z,84.58
2017-12-03T03:57:00.676Z,84.52
2017-12-03T03:59:29.300Z,84.51
2017-12-03T04:01:56.990Z,84.94
2017-12-03T04:04:24.680Z,84.82
2017-12-03T04:06:52.383Z,84.33
2017-12-03T04:09:20.140Z,83.98
2017-12-03T04:11:48.838Z,83.94
2017-12-03T04:14:16.536Z,83.80
2017-12-03T04:16:45.312Z,84.08
2017-12-03T04:19:13.284Z,83.80
2017-12-03T04:21:41.962Z,83.67
2017-12-03T04:24:10.622Z,83.72
2017-12-03T04:26:41.792Z,83.66
2017-12-03T04:29:11.286Z,83.63
2017-12-03T04:31:39.562Z,83.48
2017-12-03T04:34:11.446Z,83.28
2017-12-03T04:36:40.885Z,83.05
2017-12-03T04:48:54.744Z,82.44
2017-12-03T04:51:22.462Z,81.69
2017-12-03T04:53:50.122Z,81.25
2017-12-03T04:56:18.592Z,80.72
2017-12-03T04:58:46.303Z,80.51
2017-12-03T05:01:16.795Z,80.32
2017-12-03T05:03:47.033Z,80.12
2017-12-03T05:06:15.501Z,79.79
2017-12-03T05:08:43.339Z,79.04
2017-12-03T05:11:13.591Z,79.36
2017-12-03T05:13:41.451Z,79.31
2017-12-03T05:16:09.938Z,79.04
2017-12-03T05:18:37.792Z,78.52
2017-12-03T05:21:05.436Z,78.22
2017-12-03T05:23:33.146Z,78.56
2017-12-03T05:26:02.610Z,78.30
2017-12-03T05:28:32.689Z,79.03
2017-12-03T05:31:02.028Z,79.16
2017-12-03T05:33:29.787Z,79.14
2017-12-03T05:35:57.453Z,79.24
2017-12-03T05:38:25.249Z,79.43
2017-12-03T05:40:55.510Z,79.03
2017-12-03T05:43:27.052Z,78.86
2017-12-03T05:45:56.426Z,78.65
2017-12-03T05:48:26.811Z,78.54
2017-12-03T05:50:54.491Z,78.62
2017-12-03T05:53:22.937Z,78.92
2017-12-03T05:55:50.629Z,79.58
2017-12-03T05:58:18.458Z,80.13
2017-12-03T06:00:46.221Z,80.44
2017-12-03T06:03:13.917Z,81.41
2017-12-03T06:05:45.977Z,81.59
2017-12-03T06:08:15.561Z,80.95
2017-12-03T06:10:45.150Z,81.59
2017-12-03T06:13:12.907Z,81.47
2017-12-03T06:15:42.567Z,81.23
2017-12-03T06:18:10.231Z,81.26
2017-12-03T06:20:37.913Z,81.13
2017-12-03T06:23:05.543Z,81.71
2017-12-03T06:25:35.812Z,81.57
2017-12-03T06:28:05.627Z,80.75
2017-12-03T06:30:33.505Z,80.43
2017-12-03T06:33:03.397Z,80.31
2017-12-03T06:35:32.832Z,80.78
2017-12-03T06:38:01.391Z,80.75
2017-12-03T06:40:29.117Z,80.56
2017-12-03T06:42:56.918Z,80.73
2017-12-03T06:45:24.625Z,80.75
2017-12-03T06:47:54.527Z,81.13
2017-12-03T06:50:22.631Z,81.44
2017-12-03T06:52:50.327Z,81.62
2017-12-03T06:55:19.917Z,81.75
2017-12-03T06:57:47.733Z,81.54
2017-12-03T07:00:15.525Z,81.60
2017-12-03T07:02:43.198Z,81.63
2017-12-03T07:05:11.099Z,81.42
2017-12-03T07:07:41.583Z,81.11
2017-12-03T07:10:10.042Z,81.21
2017-12-03T07:12:39.666Z,81.52
2017-12-03T07:15:07.470Z,81.23
2017-12-03T07:17:35.196Z,80.76
2017-12-03T07:20:02.888Z,80.68
2017-12-03T07:22:31.752Z,80.89
2017-12-03T07:24:59.435Z,81.15
2017-12-03T07:27:27.317Z,81.07
2017-12-03T07:29:54.962Z,81.09
2017-12-03T07:32:22.764Z,80.37
2017-12-03T07:34:50.481Z,80.60
2017-12-03T07:37:18.208Z,80.33
2017-12-03T07:39:47.596Z,80.32
2017-12-03T07:42:15.310Z,80.01
2017-12-03T07:44:43.818Z,79.66
2017-12-03T07:47:11.578Z,80.12
2017-12-03T07:49:39.446Z,80.60
2017-12-03T07:52:08.587Z,80.83
2017-12-03T07:54:36.384Z,80.73
2017-12-03T07:57:05.776Z,80.77
2017-12-03T07:59:34.218Z,81.14
2017-12-03T08:02:02.100Z,80.13
2017-12-03T08:04:30.678Z,80.11
2017-12-03T08:06:58.465Z,80.32
2017-12-03T08:09:26.990Z,80.26
2017-12-03T08:11:56.274Z,80.48
2017-12-03T08:14:25.698Z,80.71
2017-12-03T08:16:53.458Z,81.07
2017-12-03T08:19:21.342Z,81.36
2017-12-03T08:21:51.818Z,81.29
2017-12-03T08:24:19.980Z,81.13
2017-12-03T08:26:50.456Z,81.40
2017-12-03T08:29:18.172Z,80.95
2017-12-03T08:31:45.946Z,80.11
2017-12-03T08:34:13.677Z,80.34
2017-12-03T08:36:42.530Z,78.80
2017-12-03T08:39:10.388Z,78.93
2017-12-03T08:41:40.050Z,79.36
2017-12-03T08:44:08.592Z,78.94
2017-12-03T08:46:36.329Z,78.46
2017-12-03T08:49:06.824Z,78.77
2017-12-03T08:51:34.514Z,79.12
2017-12-03T08:54:04.898Z,79.59
2017-12-03T08:56:32.624Z,77.96
2017-12-03T08:59:00.316Z,75.94
2017-12-03T09:01:32.487Z,74.57
2017-12-03T09:04:00.354Z,73.58
2017-12-03T09:06:29.752Z,73.18
2017-12-03T09:08:59.275Z,73.92
2017-12-03T09:11:27.054Z,74.48
2017-12-03T09:13:55.629Z,73.74
2017-12-03T09:16:23.306Z,74.19
2017-12-03T09:18:53.646Z,73.49
2017-12-03T09:21:21.452Z,73.94
2017-12-03T09:23:49.360Z,73.63
2017-12-03T09:26:17.129Z,71.57
2017-12-03T09:28:44.873Z,72.47
2017-12-03T09:31:13.372Z,72.37
2017-12-03T09:33:45.279Z,73.32
2017-12-03T09:36:13.759Z,72.29
2017-12-03T09:38:41.613Z,73.70
2017-12-03T09:41:10.164Z,73.55
2017-12-03T09:43:38.134Z,74.13
2017-12-03T09:46:06.522Z,74.74
2017-12-03T09:48:35.829Z,75.07
2017-12-03T09:51:03.825Z,75.75
2017-12-03T09:53:32.280Z,76.05
2017-12-03T09:55:59.992Z,74.51
2017-12-03T09:58:29.417Z,75.16
2017-12-03T10:00:58.825Z,75.48
2017-12-03T10:03:26.549Z,75.94
2017-12-03T10:05:54.414Z,76.03
2017-12-03T10:08:23.965Z,73.62
2017-12-03T10:10:51.727Z,74.70
2017-12-03T10:13:21.456Z,75.38
2017-12-03T10:15:49.568Z,73.28
2017-12-03T10:18:17.264Z,72.82
2017-12-03T10:20:45.708Z,73.03
2017-12-03T10:23:15.997Z,73.87
2017-12-03T10:25:43.757Z,71.11
2017-12-03T10:28:11.471Z,72.71
2017-12-03T10:30:39.277Z,72.38
2017-12-03T10:33:07.008Z,72.93
2017-12-03T10:35:36.467Z,71.93
2017-12-03T10:38:16.055Z,71.74
2017-12-03T10:40:46.397Z,70.00
2017-12-03T10:43:14.076Z,71.45
2017-12-03T10:45:42.561Z,71.16
2017-12-03T10:48:10.978Z,70.28
2017-12-03T10:50:38.684Z,70.70
2017-12-03T10:53:06.458Z,69.99
2017-12-03T10:55:37.620Z,69.91
2017-12-03T10:58:06.992Z,70.08
2017-12-03T11:00:37.941Z,70.45
2017-12-03T11:03:05.635Z,68.95
2017-12-03T11:05:34.525Z,69.27
2017-12-03T11:08:02.315Z,68.64
2017-12-03T11:10:30.176Z,67.93
2017-12-03T11:12:58.893Z,67.76
2017-12-03T11:15:29.230Z,67.00
2017-12-03T11:17:57.960Z,66.52
2017-12-03T11:20:25.795Z,66.20
2017-12-03T11:22:53.587Z,67.35
2017-12-03T11:25:22.797Z,65.61
2017-12-03T11:27:50.503Z,66.02
2017-12-03T11:30:18.487Z,65.97
2017-12-03T11:32:47.788Z,65.93
2017-12-03T11:35:15.706Z,64.64
2017-12-03T11:37:43.491Z,65.44
2017-12-03T11:40:12.838Z,65.29
2017-12-03T11:42:41.446Z,64.49
2017-12-03T11:45:09.833Z,64.76
2017-12-03T11:47:39.294Z,66.22
2017-12-03T11:50:07.854Z,66.99
2017-12-03T11:52:37.308Z,64.98
2017-12-03T11:55:06.644Z,65.72
2017-12-03T11:57:34.363Z,65.27
2017-12-03T12:00:02.022Z,64.55
2017-12-03T12:02:31.427Z,64.17
2017-12-03T12:05:00.922Z,64.43
2017-12-03T12:07:29.701Z,64.58
2017-12-03T12:10:01.906Z,64.35
2017-12-03T12:12:29.653Z,63.83
2017-12-03T12:14:57.341Z,64.06
2017-12-03T12:17:25.036Z,64.12
2017-12-03T12:19:54.732Z,64.51
2017-12-03T12:22:22.457Z,64.82
2017-12-03T12:24:50.362Z,64.52
2017-12-03T12:27:19.809Z,66.17
2017-12-03T12:29:47.618Z,66.35
2017-12-03T12:32:15.339Z,65.71
2017-12-03T12:34:43.082Z,65.72
2017-12-03T12:37:13.645Z,66.51
2017-12-03T12:39:41.348Z,66.57
2017-12-03T12:42:09.055Z,66.75
2017-12-03T12:44:39.508Z,67.49
2017-12-03T12:47:07.256Z,65.38
2017-12-03T12:49:34.962Z,65.88
2017-12-03T12:52:06.054Z,66.67
2017-12-03T12:54:35.969Z,67.37
2017-12-03T12:57:05.362Z,65.78
2017-12-03T12:59:35.640Z,66.97
2017-12-03T13:02:06.065Z,67.46
2017-12-03T13:04:35.637Z,67.45
2017-12-03T13:07:07.027Z,66.98
2017-12-03T13:09:36.911Z,68.25
2017-12-03T13:12:05.412Z,66.26
2017-12-03T13:14:34.893Z,66.46
2017-12-03T13:17:05.178Z,67.93
2017-12-03T13:19:34.817Z,68.68
2017-12-03T13:22:05.308Z,67.22
2017-12-03T13:24:34.874Z,66.53
2017-12-03T13:27:04.711Z,66.37
2017-12-03T13:29:35.162Z,68.29
2017-12-03T13:32:04.145Z,67.23
2017-12-03T13:34:31.835Z,67.10
2017-12-03T13:36:59.492Z,67.41
2017-12-03T13:39:27.233Z,66.71
2017-12-03T13:41:55.728Z,68.09
2017-12-03T13:44:23.528Z,67.87
2017-12-03T13:46:51.349Z,68.00
2017-12-03T13:49:21.061Z,68.37
2017-12-03T13:51:48.933Z,68.53
2017-12-03T13:54:16.618Z,68.60
2017-12-03T13:56:46.199Z,68.97
2017-12-03T13:59:13.956Z,68.41
2017-12-03T14:01:44.308Z,68.92
2017-12-03T14:04:12.274Z,69.06
2017-12-03T14:06:40.010Z,69.55
2017-12-03T14:09:07.728Z,69.61
2017-12-03T14:11:38.028Z,69.22
2017-12-03T14:14:05.815Z,68.86
2017-12-03T14:16:33.590Z,68.76
2017-12-03T14:19:03.451Z,69.98
2017-12-03T14:21:31.240Z,70.22
2017-12-03T14:24:00.845Z,70.31
2017-12-03T14:26:29.480Z,70.19
2017-12-03T14:28:59.720Z,69.24
2017-12-03T14:31:30.434Z,69.60
2017-12-03T14:33:59.862Z,69.27
2017-12-03T14:36:27.645Z,69.86
2017-12-03T14:38:55.334Z,70.47
2017-12-03T14:41:23.827Z,70.17
2017-12-03T14:43:53.270Z,69.62
2017-12-03T14:46:21.107Z,69.87
2017-12-03T14:48:50.471Z,70.67
2017-12-03T14:51:19.041Z,69.96
2017-12-03T14:53:48.833Z,70.61
2017-12-03T14:56:16.520Z,71.34
2017-12-03T14:58:47.290Z,71.30
2017-12-03T15:01:15.255Z,71.61
2017-12-03T15:03:43.750Z,71.09
2017-12-03T15:06:13.152Z,70.95
2017-12-03T15:08:42.761Z,71.02
2017-12-03T15:11:14.046Z,71.46
2017-12-03T15:13:42.214Z,71.24
2017-12-03T15:16:12.117Z,70.77
2017-12-03T15:18:40.019Z,71.25
2017-12-03T15:21:08.712Z,71.27
2017-12-03T15:23:38.252Z,71.07
2017-12-03T15:26:08.331Z,71.37
2017-12-03T15:28:37.941Z,71.13
2017-12-03T15:31:05.677Z,71.59
2017-12-03T15:33:34.328Z,71.89
2017-12-03T15:36:02.150Z,71.61
2017-12-03T15:38:30.638Z,71.38
2017-12-03T15:41:01.552Z,71.34
2017-12-03T15:43:31.085Z,71.84
2017-12-03T15:45:59.719Z,71.49
2017-12-03T15:48:29.262Z,71.88
2017-12-03T15:50:57.991Z,71.83
2017-12-03T15:53:25.907Z,71.66
2017-12-03T15:55:55.421Z,71.40
2017-12-03T15:58:25.835Z,71.94
2017-12-03T16:00:56.124Z,71.34
2017-12-03T16:03:28.038Z,71.43
2017-12-03T16:05:58.861Z,72.67
2017-12-03T16:08:26.906Z,73.02
2017-12-03T16:10:55.375Z,74.70
2017-12-03T16:13:24.922Z,76.00
2017-12-03T16:15:52.673Z,77.39
2017-12-03T16:18:22.480Z,78.17
2017-12-03T16:20:52.024Z,78.89
2017-12-03T16:23:20.565Z,79.46
2017-12-03T16:25:50.120Z,79.69
2017-12-03T16:28:19.576Z,80.72
2017-12-03T16:30:49.025Z,81.23
2017-12-03T16:33:17.976Z,81.60
2017-12-03T16:35:46.561Z,81.67
2017-12-03T16:38:17.162Z,82.12
2017-12-03T16:40:45.855Z,82.49
2017-12-03T16:43:14.359Z,82.87
2017-12-03T16:45:42.343Z,83.56
2017-12-03T16:48:10.091Z,83.75
2017-12-03T16:50:38.954Z,84.05
2017-12-03T16:53:09.604Z,84.64
2017-12-03T16:55:37.620Z,84.80
2017-12-03T16:58:05.585Z,85.16
2017-12-03T17:00:35.026Z,85.61
2017-12-03T17:03:04.649Z,86.05
2017-12-03T17:05:34.213Z,86.29
2017-12-03T17:08:03.821Z,86.39
2017-12-03T17:10:31.794Z,87.19
2017-12-03T17:13:00.281Z,87.65
2017-12-03T17:15:28.751Z,87.80
2017-12-03T17:17:58.251Z,88.17
2017-12-03T17:20:25.993Z,88.44
2017-12-03T17:22:56.448Z,88.76
2017-12-03T17:25:26.036Z,88.75
2017-12-03T17:27:53.973Z,89.06
2017-12-03T17:30:25.386Z,89.01
2017-12-03T17:32:54.816Z,89.41
2017-12-03T17:35:22.681Z,89.56
2017-12-03T17:37:50.581Z,89.87
2017-12-03T17:40:22.033Z,89.98
2017-12-03T17:42:51.611Z,90.21
2017-12-03T17:45:20.326Z,90.18
2017-12-03T17:47:51.154Z,90.47
2017-12-03T17:50:19.012Z,90.56
2017-12-03T17:52:48.752Z,90.73
2017-12-03T17:55:16.813Z,90.81
2017-12-03T17:57:44.603Z,90.81
2017-12-03T18:00:12.338Z,91.06
2017-12-03T18:02:42.150Z,91.09
2017-12-03T18:05:10.018Z,91.11
2017-12-03T18:07:37.976Z,91.18
2017-12-03T18:10:05.744Z,91.42
2017-12-03T18:12:35.653Z,91.46
2017-12-03T18:15:05.922Z,91.67
2017-12-03T18:17:33.874Z,91.70
2017-12-03T18:20:01.863Z,91.82
2017-12-03T18:22:30.622Z,91.95
2017-12-03T18:25:01.262Z,91.94
2017-12-03T18:27:29.093Z,91.85
2017-12-03T18:29:57.012Z,92.07
2017-12-03T18:32:24.860Z,92.10
2017-12-03T18:34:53.408Z,92.12
2017-12-03T18:37:22.814Z,92.21
2017-12-03T18:39:54.491Z,92.45
2017-12-03T18:42:22.431Z,92.44
2017-12-03T18:44:50.515Z,92.36
2017-12-03T18:47:18.790Z,92.44
2017-12-03T18:49:46.735Z,92.64
2017-12-03T18:52:14.477Z,92.74
2017-12-03T18:54:42.399Z,92.57
2017-12-03T18:57:12.667Z,92.61
2017-12-03T18:59:41.093Z,92.70
2017-12-03T19:02:08.965Z,92.72
2017-12-03T19:04:36.739Z,92.80
2017-12-03T19:07:07.001Z,92.65
2017-12-03T19:09:34.927Z,92.79
2017-12-03T19:12:02.715Z,92.75
2017-12-03T19:14:31.642Z,92.75
2017-12-03T19:17:00.264Z,92.77
2017-12-03T19:19:30.288Z,92.92
2017-12-03T19:21:58.375Z,92.82
2017-12-03T19:24:27.978Z,92.87
2017-12-03T19:26:59.427Z,92.77
2017-12-03T19:29:29.143Z,92.65
2017-12-03T19:31:57.376Z,92.71
2017-12-03T19:34:25.290Z,92.65
2017-12-03T19:36:53.265Z,92.69
2017-12-03T19:39:22.859Z,92.69
2017-12-03T19:41:50.847Z,92.66
2017-12-03T19:44:20.448Z,92.55
2017-12-03T19:46:48.742Z,92.61
2017-12-03T19:49:16.915Z,92.59
2017-12-03T19:51:45.002Z,92.53
2017-12-03T19:54:12.970Z,92.60
2017-12-03T19:56:42.946Z,92.68
2017-12-03T19:59:11.890Z,92.66
2017-12-03T20:01:39.970Z,92.67
2017-12-03T20:04:09.778Z,92.63
2017-12-03T20:06:37.864Z,92.65
2017-12-03T20:09:05.856Z,92.59
2017-12-03T20:11:36.387Z,92.44
2017-12-03T20:14:05.032Z,92.35
2017-12-03T20:16:32.918Z,92.43
2017-12-03T20:19:01.194Z,92.54
2017-12-03T20:21:29.276Z,92.60
2017-12-03T20:23:57.347Z,92.51
2017-12-03T20:26:25.781Z,92.57
2017-12-03T20:28:53.735Z,92.83
2017-12-03T20:31:21.911Z,92.64
2017-12-03T20:33:49.901Z,92.82
2017-12-03T20:36:18.048Z,92.83
2017-12-03T20:38:49.073Z,92.94
2017-12-03T20:41:17.167Z,93.11
2017-12-03T20:43:46.570Z,93.17
2017-12-03T20:46:14.636Z,93.07
2017-12-03T20:48:42.629Z,93.17
2017-12-03T20:51:10.583Z,93.07
2017-12-03T20:53:39.373Z,93.23
2017-12-03T20:56:08.176Z,93.31
2017-12-03T20:58:36.156Z,93.07
2017-12-03T21:01:04.131Z,93.14
2017-12-03T21:03:34.501Z,93.25
2017-12-03T21:06:03.421Z,93.15
2017-12-03T21:08:32.515Z,93.20
2017-12-03T21:11:00.735Z,93.09
2017-12-03T21:13:28.595Z,92.97
2017-12-03T21:15:56.472Z,92.83
2017-12-03T21:18:26.934Z,92.85
2017-12-03T21:20:54.864Z,92.88
2017-12-03T21:23:23.467Z,92.70
2017-12-03T21:25:51.238Z,92.83
2017-12-03T21:28:19.303Z,92.76
2017-12-03T21:30:49.738Z,92.73
2017-12-03T21:33:18.245Z,92.63
2017-12-03T21:35:45.944Z,92.64
2017-12-03T21:38:16.277Z,92.68
2017-12-03T21:40:44.422Z,92.45
2017-12-03T21:43:14.828Z,92.26
2017-12-03T21:45:42.886Z,92.42
2017-12-03T21:48:10.563Z,92.38
2017-12-03T21:50:41.024Z,92.24
2017-12-03T21:53:08.775Z,92.29
2017-12-03T21:55:36.627Z,92.44
2017-12-03T21:58:04.388Z,92.56
2017-12-03T22:00:32.459Z,92.48
2017-12-03T22:03:01.855Z,92.61
2017-12-03T22:05:32.587Z,92.45
2017-12-03T22:08:00.359Z,92.44
2017-12-03T22:10:30.623Z,92.50
2017-12-03T22:13:00.083Z,92.67
2017-12-03T22:15:27.864Z,92.77
2017-12-03T22:17:55.711Z,92.90
2017-12-03T22:20:23.602Z,92.97
2017-12-03T22:22:51.419Z,93.04
2017-12-03T22:25:19.112Z,92.96
2017-12-03T22:27:46.878Z,92.95
2017-12-03T22:30:16.171Z,92.96
2017-12-03T22:32:43.902Z,93.08
2017-12-03T22:35:13.174Z,93.17
2017-12-03T22:37:41.038Z,93.26
2017-12-03T22:40:08.835Z,93.25
2017-12-03T22:42:36.585Z,93.35
2017-12-03T22:45:04.189Z,93.53
2017-12-03T22:47:32.049Z,93.55
2017-12-03T22:49:59.693Z,93.80
2017-12-03T22:52:30.076Z,93.96
2017-12-03T22:54:58.086Z,94.04
2017-12-03T22:57:25.813Z,94.06
2017-12-03T22:59:53.465Z,94.22
2017-12-03T23:02:23.774Z,94.28
2017-12-03T23:04:51.530Z,94.48
2017-12-03T23:07:19.299Z,94.65
2017-12-03T23:09:47.028Z,94.57
2017-12-03T23:12:16.480Z,94.62
2017-12-03T23:14:44.184Z,94.84
2017-12-03T23:17:11.852Z,94.84
2017-12-03T23:19:41.233Z,94.96
2017-12-03T23:22:12.730Z,95.07
2017-12-03T23:24:42.284Z,95.12
2017-12-03T23:27:10.110Z,94.85
2017-12-03T23:29:37.819Z,94.98
2017-12-03T23:32:05.626Z,95.03
2017-12-03T23:34:33.448Z,95.07
2017-12-03T23:37:01.895Z,94.93
2017-12-03T23:39:29.743Z,94.98
2017-12-03T23:41:59.251Z,94.96
2017-12-03T23:44:28.847Z,94.97
2017-12-03T23:46:57.489Z,94.86
2017-12-03T23:49:25.181Z,94.75
2017-12-03T23:51:52.863Z,94.81
2017-12-03T23:54:20.735Z,94.81
2017-12-03T23:56:50.198Z,94.78
2017-12-03T23:59:18.005Z,94.89
